Flight Track Log - Related Links

Times and Time Zones

All times are in EST time to prevent confusion due to time zone crossing. See the N977SB flight status page for this flight to view local times or setup timezone preferences in your user account.

Time Position Orientation Groundspeed Altitude Reporting Facility
EST Latitude Longitude Course Direction KTS MPH feet Rate Location/Type
Fri 03:27:05 PM 29.9681 -97.8964 348° North 152 175 3,600  Level Fort Worth Center
Fri 03:28:08 PM 29.9972 -97.9436 306° West 165 190 4,300 1,254 Climbing Fort Worth Center
Fri 03:29:19 PM 30.0378 -97.9939 313° West 170 196 6,400 1,534 Climbing Houston Center
Fri 03:30:21 PM 30.0797 -98.0161 335° Northwest 165 190 7,700 1,306 Climbing Houston Center
Fri 03:31:00 PM 30.2288 -97.8070 355° North  Level Estimated
Fri 03:31:23 PM 30.1303 -98.0231 353° North 171 197 9,100  Level Houston Center
Fri 03:32:00 PM 30.2841 -97.8208 348° North  Level FlightAware Approximate
Fri 03:32:25 PM 30.1794 -98.0286 354° North 176 203 10,100  Level Houston Center
Fri 03:33:28 PM 30.2350 -98.0350 354° North 188 216 11,300 1,056 Climbing Houston Center
Fri 03:34:30 PM 30.2869 -98.0403 355° North 187 215 12,300 1,016 Climbing Houston Center
Fri 03:35:32 PM 30.3389 -98.0461 354° North 184 212 13,400 919 Climbing Houston Center
Fri 03:36:34 PM 30.3897 -98.0517 355° North 183 211 14,200 871 Climbing Houston Center
Fri 03:37:36 PM 30.4392 -98.0572 354° North 178 205 15,200 912 Climbing Houston Center
Fri 03:38:39 PM 30.4881 -98.0614 356° North 174 200 16,100 720 Climbing Houston Center
Fri 03:39:41 PM 30.5386 -98.0669 355° North 179 206 16,700 774 Climbing Houston Center
Fri 03:40:43 PM 30.6008 -98.0733 355° North 186 214 17,700 581 Climbing Houston Center
Fri 03:41:45 PM 30.6536 -98.0794 354° North 188 216 17,900 435 Climbing Houston Center
Fri 03:42:47 PM 30.7064 -98.0842 356° North 189 217 18,600 581 Climbing Houston Center
Fri 03:43:49 PM 30.7561 -98.0908 353° North 182 209 19,100 432 Climbing Houston Center
Fri 03:44:52 PM 30.8086 -98.0978 354° North 184 212 19,500 384 Climbing Houston Center
Fri 03:45:54 PM 30.8631 -98.1028 355° North 190 219 19,900 242 Climbing Houston Center
Fri 03:46:56 PM 30.9178 -98.1097 354° North 194 223 20,000 48 Climbing Houston Center
Fri 03:47:58 PM 30.9781 -98.1164 355° North 208 239 20,000  Level Houston Center
Fri 03:49:00 PM 31.0525 -98.1239 355° North 222 255 20,000  Level Houston Center
Fri 03:50:03 PM 31.1167 -98.1317 354° North 227 261 20,000  Level Houston Center
Fri 03:50:51 PM 31.1694 -98.1394 353° North 231 266 20,000  Level Fort Worth Center
Fri 03:51:53 PM 31.2350 -98.1264 10° North 237 273 20,000  Level Fort Worth Center
Fri 03:52:55 PM 31.3006 -98.1056 15° North 241 277 20,000  Level Fort Worth Center
Fri 03:53:56 PM 31.3667 -98.0850 15° North 243 280 20,000  Level Fort Worth Center
Fri 03:54:58 PM 31.4331 -98.0639 15° North 245 282 20,000  Level Fort Worth Center
Fri 03:56:00 PM 31.4986 -98.0425 16° North 242 278 20,000 -435 Level Fort Worth Center
Fri 03:57:02 PM 31.5683 -98.0214 14° North 253 291 19,100 -919 Descending Fort Worth Center
Fri 03:58:04 PM 31.6414 -97.9972 16° North 270 311 18,100 -677 Descending Fort Worth Center
Fri 03:59:06 PM 31.7144 -97.9733 16° North 270 311 17,700 -677 Descending Fort Worth Center
Fri 04:00:08 PM 31.7978 -97.9469 15° North 264 304 16,700 -919 Descending Fort Worth Center
Fri 04:01:10 PM 31.8692 -97.9247 15° North 263 303 15,800 -871 Descending Fort Worth Center
Fri 04:02:12 PM 31.9389 -97.9019 15° North 259 298 14,900 -1,113 Descending Fort Worth Center
Fri 04:03:14 PM 32.0139 -97.8783 15° North 257 296 13,500 -1,561 Descending Fort Worth Center
Fri 04:04:15 PM 32.0822 -97.8567 15° North 252 290 11,700 -1,659 Descending Fort Worth Center
Fri 04:05:17 PM 32.1469 -97.8342 16° North 242 278 10,100 -1,548 Descending Fort Worth Center
Fri 04:06:19 PM 32.2169 -97.8114 15° North 241 277 8,500 -1,548 Descending Fort Worth Center
Fri 04:07:21 PM 32.2794 -97.7914 15° North 233 268 6,900 -1,548 Descending Fort Worth Center
Fri 04:08:23 PM 32.3469 -97.7708 14° North 230 265 5,300 -1,113 Descending Fort Worth Center
Fri 04:09:25 PM 32.4019 -97.7425 24° Northeast 212 244 4,600 -629 Descending Fort Worth Center
Fri 04:10:27 PM 32.4461 -97.7033 37° Northeast 198 228 4,000 -290 Descending Fort Worth Center
Fri 04:11:29 PM 32.4914 -97.6647 36° Northeast 188 216 4,000  Level Fort Worth Center
Fri 04:12:31 PM 32.5297 -97.6194 45° Northeast 193 222 4,000  Level Fort Worth Center
Fri 04:13:33 PM 32.5614 -97.5708 52° Northeast 187 215 4,000  Level Fort Worth Center
Fri 04:14:35 PM 32.5942 -97.5222 51° Northeast 176 203 4,000 -339 Level Fort Worth Center
Fri 04:15:37 PM 32.6206 -97.4778 55° Northeast 165 190 3,300 -488 Descending Fort Worth Center
Fri 04:16:38 PM 32.6400 -97.4300 64° Northeast 151 174 3,000 -293 Descending Fort Worth Center
Fri 04:17:40 PM 32.6586 -97.3872 63° Northeast 147 169 2,700 -242 Descending Fort Worth Center
Fri 04:18:42 PM 32.6814 -97.3483 55° Northeast 147 169 2,500 -290 Descending Fort Worth Center
Fri 04:19:44 PM 32.7142 -97.3461 North 113 130 2,100 -145 Descending Fort Worth Center
Fri 04:20:46 PM 32.7422 -97.3481 357° North 101 116 2,200 -290 Climbing Fort Worth Center
Fri 04:21:48 PM 32.7753 -97.3547 350° North 110 127 1,500 -532 Descending Fort Worth Center
Fri 04:22:50 PM 32.7956 -97.3572 354° North 105 121 1,100 -387 Descending Fort Worth Center

Login

Don't have an account? Register now (free) for customized features, flight alerts, and more!